ESMD weather

CLOSED Hässleholm Vankivar Airport
Hässleholm, Skåne län, Sweden

Public forecast

Using degrees Celsius for public forecast. Weather courtesy of forecast.io.

METAR (pilot weather report)

Closest report is Ljungbyhed Airport, 19.0 nm (35.2 km) WSW. Retrieved 2019/07/18 22:20 UTC (25 minutes ago):

ESTL 182220Z AUTO 10004KT 9999 ///////// 13/11 Q1012

TAF (pilot weather forecast)

Forecast is more than 12 hours old.

Closest forecast is Ljungbyhed Airport, 19.0 nm (35.2 km) WSW. Retrieved 2016/03/01 09:33 UTC (3 years ago):

TAF ESTL 010830Z 0109/0124 14004KT 9999 SCT025